sensor_id;sensor_type;location;lat;lon;timestamp;temperature;humidity
71206;SHT31;58935;54.498;18.544;2023-04-24T00:00:28;12.15;78.89
71206;SHT31;58935;54.498;18.544;2023-04-24T00:02:54;12.13;79.07
71206;SHT31;58935;54.498;18.544;2023-04-24T00:05:22;12.07;79.20
71206;SHT31;58935;54.498;18.544;2023-04-24T00:07:50;12.00;79.15
71206;SHT31;58935;54.498;18.544;2023-04-24T00:10:18;11.94;79.19
71206;SHT31;58935;54.498;18.544;2023-04-24T00:12:44;11.88;79.17
71206;SHT31;58935;54.498;18.544;2023-04-24T00:15:10;11.78;79.19
71206;SHT31;58935;54.498;18.544;2023-04-24T00:17:36;11.70;79.33
71206;SHT31;58935;54.498;18.544;2023-04-24T00:20:04;11.61;79.54
71206;SHT31;58935;54.498;18.544;2023-04-24T00:22:32;11.51;79.83
71206;SHT31;58935;54.498;18.544;2023-04-24T00:24:58;11.45;80.14
71206;SHT31;58935;54.498;18.544;2023-04-24T00:27:23;11.40;80.33
71206;SHT31;58935;54.498;18.544;2023-04-24T00:29:49;11.38;80.61
71206;SHT31;58935;54.498;18.544;2023-04-24T00:32:15;11.40;80.76
71206;SHT31;58935;54.498;18.544;2023-04-24T00:34:40;11.42;80.70
71206;SHT31;58935;54.498;18.544;2023-04-24T00:37:07;11.46;80.68
71206;SHT31;58935;54.498;18.544;2023-04-24T00:39:33;11.50;80.52
71206;SHT31;58935;54.498;18.544;2023-04-24T00:41:58;11.50;80.42
71206;SHT31;58935;54.498;18.544;2023-04-24T00:44:24;11.51;80.60
71206;SHT31;58935;54.498;18.544;2023-04-24T00:46:50;11.52;80.69
71206;SHT31;58935;54.498;18.544;2023-04-24T00:49:22;11.55;80.68
71206;SHT31;58935;54.498;18.544;2023-04-24T00:51:48;11.56;80.53
71206;SHT31;58935;54.498;18.544;2023-04-24T00:54:14;11.56;80.42
71206;SHT31;58935;54.498;18.544;2023-04-24T00:56:41;11.57;80.42
71206;SHT31;58935;54.498;18.544;2023-04-24T00:59:11;11.57;80.48
71206;SHT31;58935;54.498;18.544;2023-04-24T01:01:44;11.57;80.54
71206;SHT31;58935;54.498;18.544;2023-04-24T01:04:11;11.61;80.56
71206;SHT31;58935;54.498;18.544;2023-04-24T01:06:38;11.62;80.40
71206;SHT31;58935;54.498;18.544;2023-04-24T01:09:08;11.62;80.37
71206;SHT31;58935;54.498;18.544;2023-04-24T01:11:37;11.62;80.36
71206;SHT31;58935;54.498;18.544;2023-04-24T01:14:02;11.61;80.39
71206;SHT31;58935;54.498;18.544;2023-04-24T01:16:28;11.62;80.31
71206;SHT31;58935;54.498;18.544;2023-04-24T01:18:54;11.62;80.40
71206;SHT31;58935;54.498;18.544;2023-04-24T01:21:20;11.63;80.40
71206;SHT31;58935;54.498;18.544;2023-04-24T01:23:52;11.65;80.42
71206;SHT31;58935;54.498;18.544;2023-04-24T01:26:21;11.67;80.48
71206;SHT31;58935;54.498;18.544;2023-04-24T01:28:48;11.69;80.32
71206;SHT31;58935;54.498;18.544;2023-04-24T01:31:14;11.69;80.32
71206;SHT31;58935;54.498;18.544;2023-04-24T01:33:41;11.72;80.22
71206;SHT31;58935;54.498;18.544;2023-04-24T01:36:08;11.71;80.16
71206;SHT31;58935;54.498;18.544;2023-04-24T01:38:38;11.69;80.20
71206;SHT31;58935;54.498;18.544;2023-04-24T01:41:06;11.66;80.18
71206;SHT31;58935;54.498;18.544;2023-04-24T01:43:32;11.63;80.33
71206;SHT31;58935;54.498;18.544;2023-04-24T01:45:57;11.63;80.42
71206;SHT31;58935;54.498;18.544;2023-04-24T01:48:23;11.63;80.36
71206;SHT31;58935;54.498;18.544;2023-04-24T01:50:49;11.59;80.42
71206;SHT31;58935;54.498;18.544;2023-04-24T01:53:14;11.58;80.43
71206;SHT31;58935;54.498;18.544;2023-04-24T01:55:40;11.56;80.33
71206;SHT31;58935;54.498;18.544;2023-04-24T01:58:06;11.52;80.31
71206;SHT31;58935;54.498;18.544;2023-04-24T02:00:32;11.49;80.22
71206;SHT31;58935;54.498;18.544;2023-04-24T02:02:57;11.46;80.23
71206;SHT31;58935;54.498;18.544;2023-04-24T02:05:23;11.44;80.27
71206;SHT31;58935;54.498;18.544;2023-04-24T02:07:52;11.42;80.18
71206;SHT31;58935;54.498;18.544;2023-04-24T02:10:17;11.39;80.11
71206;SHT31;58935;54.498;18.544;2023-04-24T02:12:43;11.34;80.13
71206;SHT31;58935;54.498;18.544;2023-04-24T02:15:08;11.30;80.29
71206;SHT31;58935;54.498;18.544;2023-04-24T02:17:35;11.25;80.38
71206;SHT31;58935;54.498;18.544;2023-04-24T02:20:01;11.20;80.49
71206;SHT31;58935;54.498;18.544;2023-04-24T02:22:27;11.16;80.54
71206;SHT31;58935;54.498;18.544;2023-04-24T02:24:52;11.15;80.63
71206;SHT31;58935;54.498;18.544;2023-04-24T02:27:18;11.15;80.70
71206;SHT31;58935;54.498;18.544;2023-04-24T02:29:46;11.15;80.71
71206;SHT31;58935;54.498;18.544;2023-04-24T02:32:11;11.13;80.74
71206;SHT31;58935;54.498;18.544;2023-04-24T02:34:37;11.10;80.73
71206;SHT31;58935;54.498;18.544;2023-04-24T02:37:03;11.07;80.85
71206;SHT31;58935;54.498;18.544;2023-04-24T02:39:29;11.03;80.87
71206;SHT31;58935;54.498;18.544;2023-04-24T02:41:54;11.02;80.94
71206;SHT31;58935;54.498;18.544;2023-04-24T02:44:22;10.99;81.01
71206;SHT31;58935;54.498;18.544;2023-04-24T02:46:50;10.97;81.11
71206;SHT31;58935;54.498;18.544;2023-04-24T02:49:15;10.96;81.21
71206;SHT31;58935;54.498;18.544;2023-04-24T02:51:41;10.94;81.17
71206;SHT31;58935;54.498;18.544;2023-04-24T02:54:07;10.91;81.16
71206;SHT31;58935;54.498;18.544;2023-04-24T02:56:36;10.86;81.21
71206;SHT31;58935;54.498;18.544;2023-04-24T02:59:03;10.81;81.20
71206;SHT31;58935;54.498;18.544;2023-04-24T03:01:29;10.76;81.19
71206;SHT31;58935;54.498;18.544;2023-04-24T03:03:55;10.71;81.29
71206;SHT31;58935;54.498;18.544;2023-04-24T03:06:20;10.68;81.39
71206;SHT31;58935;54.498;18.544;2023-04-24T03:08:46;10.63;81.50
71206;SHT31;58935;54.498;18.544;2023-04-24T03:11:12;10.60;81.52
71206;SHT31;58935;54.498;18.544;2023-04-24T03:13:37;10.58;81.57
71206;SHT31;58935;54.498;18.544;2023-04-24T03:16:03;10.57;81.59
71206;SHT31;58935;54.498;18.544;2023-04-24T03:18:29;10.56;81.54
71206;SHT31;58935;54.498;18.544;2023-04-24T03:20:55;10.54;81.55
71206;SHT31;58935;54.498;18.544;2023-04-24T03:23:21;10.52;81.62
71206;SHT31;58935;54.498;18.544;2023-04-24T03:25:46;10.52;81.72
71206;SHT31;58935;54.498;18.544;2023-04-24T03:28:13;10.51;81.71
71206;SHT31;58935;54.498;18.544;2023-04-24T03:30:39;10.50;81.74
71206;SHT31;58935;54.498;18.544;2023-04-24T03:33:05;10.49;81.74
71206;SHT31;58935;54.498;18.544;2023-04-24T03:35:31;10.46;81.82
71206;SHT31;58935;54.498;18.544;2023-04-24T03:37:56;10.46;81.90
71206;SHT31;58935;54.498;18.544;2023-04-24T03:40:22;10.46;81.99
71206;SHT31;58935;54.498;18.544;2023-04-24T03:42:47;10.46;81.97
71206;SHT31;58935;54.498;18.544;2023-04-24T03:45:13;10.47;82.00
71206;SHT31;58935;54.498;18.544;2023-04-24T03:47:38;10.48;82.03
71206;SHT31;58935;54.498;18.544;2023-04-24T03:50:04;10.52;82.09
71206;SHT31;58935;54.498;18.544;2023-04-24T03:52:30;10.54;82.01
71206;SHT31;58935;54.498;18.544;2023-04-24T03:54:56;10.56;81.92
71206;SHT31;58935;54.498;18.544;2023-04-24T03:57:21;10.57;81.80
71206;SHT31;58935;54.498;18.544;2023-04-24T03:59:47;10.56;81.71
71206;SHT31;58935;54.498;18.544;2023-04-24T04:02:12;10.53;81.71
71206;SHT31;58935;54.498;18.544;2023-04-24T04:04:37;10.52;81.75
71206;SHT31;58935;54.498;18.544;2023-04-24T04:07:03;10.52;81.76
71206;SHT31;58935;54.498;18.544;2023-04-24T04:09:30;10.50;81.76
71206;SHT31;58935;54.498;18.544;2023-04-24T04:11:56;10.50;81.65
71206;SHT31;58935;54.498;18.544;2023-04-24T04:14:22;10.48;81.70
71206;SHT31;58935;54.498;18.544;2023-04-24T04:16:48;10.47;81.72
71206;SHT31;58935;54.498;18.544;2023-04-24T04:19:14;10.47;81.78
71206;SHT31;58935;54.498;18.544;2023-04-24T04:21:40;10.45;81.79
71206;SHT31;58935;54.498;18.544;2023-04-24T04:24:05;10.46;81.78
71206;SHT31;58935;54.498;18.544;2023-04-24T04:26:32;10.46;81.78
71206;SHT31;58935;54.498;18.544;2023-04-24T04:28:58;10.47;81.71
71206;SHT31;58935;54.498;18.544;2023-04-24T04:31:25;10.48;81.79
71206;SHT31;58935;54.498;18.544;2023-04-24T04:33:51;10.52;81.89
71206;SHT31;58935;54.498;18.544;2023-04-24T04:36:16;10.58;81.84
71206;SHT31;58935;54.498;18.544;2023-04-24T04:38:42;10.61;81.62
71206;SHT31;58935;54.498;18.544;2023-04-24T04:41:09;10.65;81.50
71206;SHT31;58935;54.498;18.544;2023-04-24T04:43:35;10.68;81.41
71206;SHT31;58935;54.498;18.544;2023-04-24T04:46:03;10.71;81.31
71206;SHT31;58935;54.498;18.544;2023-04-24T04:48:28;10.74;81.07
71206;SHT31;58935;54.498;18.544;2023-04-24T04:50:56;10.75;81.09
71206;SHT31;58935;54.498;18.544;2023-04-24T04:53:23;10.78;81.05
71206;SHT31;58935;54.498;18.544;2023-04-24T04:55:48;10.81;81.08
71206;SHT31;58935;54.498;18.544;2023-04-24T04:58:17;10.85;80.97
71206;SHT31;58935;54.498;18.544;2023-04-24T05:00:42;10.88;80.91
71206;SHT31;58935;54.498;18.544;2023-04-24T05:03:08;10.94;80.80
71206;SHT31;58935;54.498;18.544;2023-04-24T05:05:33;10.96;80.59
71206;SHT31;58935;54.498;18.544;2023-04-24T05:08:05;11.00;80.51
71206;SHT31;58935;54.498;18.544;2023-04-24T05:10:32;11.04;80.46
71206;SHT31;58935;54.498;18.544;2023-04-24T05:12:58;11.05;80.31
71206;SHT31;58935;54.498;18.544;2023-04-24T05:15:23;11.10;80.40
71206;SHT31;58935;54.498;18.544;2023-04-24T05:17:49;11.15;80.40
71206;SHT31;58935;54.498;18.544;2023-04-24T05:20:14;11.20;80.00
71206;SHT31;58935;54.498;18.544;2023-04-24T05:22:40;11.19;79.80
71206;SHT31;58935;54.498;18.544;2023-04-24T05:25:06;11.19;79.77
71206;SHT31;58935;54.498;18.544;2023-04-24T05:27:32;11.18;79.60
71206;SHT31;58935;54.498;18.544;2023-04-24T05:29:58;11.21;79.76
71206;SHT31;58935;54.498;18.544;2023-04-24T05:32:24;11.26;79.79
71206;SHT31;58935;54.498;18.544;2023-04-24T05:34:49;11.29;79.52
71206;SHT31;58935;54.498;18.544;2023-04-24T05:37:15;11.31;79.44
71206;SHT31;58935;54.498;18.544;2023-04-24T05:39:40;11.34;79.28
71206;SHT31;58935;54.498;18.544;2023-04-24T05:42:06;11.40;79.18
71206;SHT31;58935;54.498;18.544;2023-04-24T05:44:32;11.45;79.16
71206;SHT31;58935;54.498;18.544;2023-04-24T05:46:57;11.51;78.96
71206;SHT31;58935;54.498;18.544;2023-04-24T05:49:23;11.50;78.80
71206;SHT31;58935;54.498;18.544;2023-04-24T05:51:48;11.52;79.02
71206;SHT31;58935;54.498;18.544;2023-04-24T05:54:14;11.56;78.89
71206;SHT31;58935;54.498;18.544;2023-04-24T05:56:39;11.60;78.67
71206;SHT31;58935;54.498;18.544;2023-04-24T05:59:05;11.64;78.49
71206;SHT31;58935;54.498;18.544;2023-04-24T06:01:33;11.64;78.36
71206;SHT31;58935;54.498;18.544;2023-04-24T06:03:59;11.65;78.33
71206;SHT31;58935;54.498;18.544;2023-04-24T06:06:25;11.69;78.31
71206;SHT31;58935;54.498;18.544;2023-04-24T06:08:52;11.74;78.31
71206;SHT31;58935;54.498;18.544;2023-04-24T06:11:18;11.76;78.10
71206;SHT31;58935;54.498;18.544;2023-04-24T06:13:43;11.79;78.03
71206;SHT31;58935;54.498;18.544;2023-04-24T06:16:09;11.82;77.96
71206;SHT31;58935;54.498;18.544;2023-04-24T06:18:34;11.84;77.71
71206;SHT31;58935;54.498;18.544;2023-04-24T06:21:02;11.83;77.63
71206;SHT31;58935;54.498;18.544;2023-04-24T06:23:28;11.84;77.75
71206;SHT31;58935;54.498;18.544;2023-04-24T06:25:54;11.89;77.66
71206;SHT31;58935;54.498;18.544;2023-04-24T06:28:19;11.92;77.28
71206;SHT31;58935;54.498;18.544;2023-04-24T06:30:45;11.89;77.13
71206;SHT31;58935;54.498;18.544;2023-04-24T06:33:10;11.88;77.14
71206;SHT31;58935;54.498;18.544;2023-04-24T06:35:36;11.87;77.16
71206;SHT31;58935;54.498;18.544;2023-04-24T06:38:03;11.88;77.18
71206;SHT31;58935;54.498;18.544;2023-04-24T06:40:28;11.88;76.95
71206;SHT31;58935;54.498;18.544;2023-04-24T06:42:54;11.90;76.76
71206;SHT31;58935;54.498;18.544;2023-04-24T06:45:19;11.89;76.67
71206;SHT31;58935;54.498;18.544;2023-04-24T06:47:45;11.92;76.67
71206;SHT31;58935;54.498;18.544;2023-04-24T06:50:12;11.92;76.77
71206;SHT31;58935;54.498;18.544;2023-04-24T06:52:40;11.93;77.15
71206;SHT31;58935;54.498;18.544;2023-04-24T06:55:08;12.00;77.47
71206;SHT31;58935;54.498;18.544;2023-04-24T06:57:36;12.02;77.33
71206;SHT31;58935;54.498;18.544;2023-04-24T07:00:02;12.05;77.46
71206;SHT31;58935;54.498;18.544;2023-04-24T07:02:34;12.10;77.65
71206;SHT31;58935;54.498;18.544;2023-04-24T07:05:00;12.13;77.72
71206;SHT31;58935;54.498;18.544;2023-04-24T07:07:26;12.12;77.63
71206;SHT31;58935;54.498;18.544;2023-04-24T07:09:52;12.12;77.72
71206;SHT31;58935;54.498;18.544;2023-04-24T07:12:19;12.13;77.73
71206;SHT31;58935;54.498;18.544;2023-04-24T07:14:46;12.09;77.74
71206;SHT31;58935;54.498;18.544;2023-04-24T07:17:13;12.03;77.71
71206;SHT31;58935;54.498;18.544;2023-04-24T07:19:38;11.97;77.97
71206;SHT31;58935;54.498;18.544;2023-04-24T07:22:04;11.92;78.09
71206;SHT31;58935;54.498;18.544;2023-04-24T07:24:30;11.88;78.22
71206;SHT31;58935;54.498;18.544;2023-04-24T07:26:57;11.84;78.45
71206;SHT31;58935;54.498;18.544;2023-04-24T07:29:22;11.84;78.67
71206;SHT31;58935;54.498;18.544;2023-04-24T07:31:48;11.84;78.74
71206;SHT31;58935;54.498;18.544;2023-04-24T07:34:13;11.83;78.94
71206;SHT31;58935;54.498;18.544;2023-04-24T07:36:40;11.84;79.13
71206;SHT31;58935;54.498;18.544;2023-04-24T07:39:06;11.86;79.16
71206;SHT31;58935;54.498;18.544;2023-04-24T07:41:33;11.88;79.25
71206;SHT31;58935;54.498;18.544;2023-04-24T07:43:58;11.88;79.42
71206;SHT31;58935;54.498;18.544;2023-04-24T07:46:24;11.89;79.48
71206;SHT31;58935;54.498;18.544;2023-04-24T07:48:50;11.88;79.36
71206;SHT31;58935;54.498;18.544;2023-04-24T07:51:19;11.90;79.61
71206;SHT31;58935;54.498;18.544;2023-04-24T07:53:44;11.94;79.59
71206;SHT31;58935;54.498;18.544;2023-04-24T07:56:10;11.95;79.58
71206;SHT31;58935;54.498;18.544;2023-04-24T07:58:36;12.00;79.87
71206;SHT31;58935;54.498;18.544;2023-04-24T08:01:01;12.03;79.88
71206;SHT31;58935;54.498;18.544;2023-04-24T08:03:27;12.06;79.99
71206;SHT31;58935;54.498;18.544;2023-04-24T08:05:53;12.09;79.96
71206;SHT31;58935;54.498;18.544;2023-04-24T08:08:20;12.10;80.10
71206;SHT31;58935;54.498;18.544;2023-04-24T08:10:48;12.13;80.24
71206;SHT31;58935;54.498;18.544;2023-04-24T08:13:17;12.12;80.20
71206;SHT31;58935;54.498;18.544;2023-04-24T08:15:45;12.13;80.32
71206;SHT31;58935;54.498;18.544;2023-04-24T08:18:11;12.13;80.59
71206;SHT31;58935;54.498;18.544;2023-04-24T08:20:37;12.14;80.57
71206;SHT31;58935;54.498;18.544;2023-04-24T08:23:03;12.18;80.70
71206;SHT31;58935;54.498;18.544;2023-04-24T08:25:30;12.25;80.59
71206;SHT31;58935;54.498;18.544;2023-04-24T08:27:56;12.29;80.46
71206;SHT31;58935;54.498;18.544;2023-04-24T08:30:24;12.34;80.30
71206;SHT31;58935;54.498;18.544;2023-04-24T08:32:49;12.37;80.33
71206;SHT31;58935;54.498;18.544;2023-04-24T08:35:17;12.42;80.29
71206;SHT31;58935;54.498;18.544;2023-04-24T08:37:43;12.42;80.16
71206;SHT31;58935;54.498;18.544;2023-04-24T08:42:42;12.50;80.53
71206;SHT31;58935;54.498;18.544;2023-04-24T08:45:10;12.55;80.57
71206;SHT31;58935;54.498;18.544;2023-04-24T08:47:39;12.62;80.47
71206;SHT31;58935;54.498;18.544;2023-04-24T08:50:07;12.68;80.24
71206;SHT31;58935;54.498;18.544;2023-04-24T08:52:34;12.69;79.98
71206;SHT31;58935;54.498;18.544;2023-04-24T08:55:02;12.66;79.88
71206;SHT31;58935;54.498;18.544;2023-04-24T08:57:29;12.59;79.89
71206;SHT31;58935;54.498;18.544;2023-04-24T08:59:56;12.53;79.95
71206;SHT31;58935;54.498;18.544;2023-04-24T09:02:23;12.47;79.88
71206;SHT31;58935;54.498;18.544;2023-04-24T09:04:50;12.46;79.98
71206;SHT31;58935;54.498;18.544;2023-04-24T09:07:17;12.49;80.00
71206;SHT31;58935;54.498;18.544;2023-04-24T09:09:44;12.55;79.93
71206;SHT31;58935;54.498;18.544;2023-04-24T09:12:15;12.57;79.72
71206;SHT31;58935;54.498;18.544;2023-04-24T09:14:42;12.57;79.80
71206;SHT31;58935;54.498;18.544;2023-04-24T09:17:10;12.57;80.01
71206;SHT31;58935;54.498;18.544;2023-04-24T09:19:36;12.58;80.06
71206;SHT31;58935;54.498;18.544;2023-04-24T09:22:22;12.63;80.32
71206;SHT31;58935;54.498;18.544;2023-04-24T09:24:59;12.71;80.35
71206;SHT31;58935;54.498;18.544;2023-04-24T09:27:30;12.78;80.18
71206;SHT31;58935;54.498;18.544;2023-04-24T09:29:57;12.87;80.26
71206;SHT31;58935;54.498;18.544;2023-04-24T09:32:24;12.98;80.21
71206;SHT31;58935;54.498;18.544;2023-04-24T09:35:04;13.04;79.83
71206;SHT31;58935;54.498;18.544;2023-04-24T09:37:42;13.07;79.72
71206;SHT31;58935;54.498;18.544;2023-04-24T09:40:14;13.13;79.67
71206;SHT31;58935;54.498;18.544;2023-04-24T09:42:44;13.24;79.85
71206;SHT31;58935;54.498;18.544;2023-04-24T09:45:18;13.29;79.72
71206;SHT31;58935;54.498;18.544;2023-04-24T09:47:45;13.32;79.44
71206;SHT31;58935;54.498;18.544;2023-04-24T09:50:14;13.37;79.31
71206;SHT31;58935;54.498;18.544;2023-04-24T09:52:43;13.43;79.13
71206;SHT31;58935;54.498;18.544;2023-04-24T09:55:13;13.48;79.17
71206;SHT31;58935;54.498;18.544;2023-04-24T10:00:18;13.63;78.67
71206;SHT31;58935;54.498;18.544;2023-04-24T10:02:49;13.72;78.70
71206;SHT31;58935;54.498;18.544;2023-04-24T10:05:17;13.85;78.48
71206;SHT31;58935;54.498;18.544;2023-04-24T10:07:51;14.02;78.33
71206;SHT31;58935;54.498;18.544;2023-04-24T10:10:16;14.25;78.34
71206;SHT31;58935;54.498;18.544;2023-04-24T10:12:42;14.45;77.99
71206;SHT31;58935;54.498;18.544;2023-04-24T10:15:09;14.64;77.64
71206;SHT31;58935;54.498;18.544;2023-04-24T10:17:37;14.80;77.38
71206;SHT31;58935;54.498;18.544;2023-04-24T10:20:04;14.93;77.00
71206;SHT31;58935;54.498;18.544;2023-04-24T10:22:33;15.06;76.86
71206;SHT31;58935;54.498;18.544;2023-04-24T10:25:00;15.22;76.56
71206;SHT31;58935;54.498;18.544;2023-04-24T10:27:29;15.41;76.42
71206;SHT31;58935;54.498;18.544;2023-04-24T10:29:59;15.59;76.00
71206;SHT31;58935;54.498;18.544;2023-04-24T10:32:26;15.74;75.51
71206;SHT31;58935;54.498;18.544;2023-04-24T10:34:52;15.89;75.30
71206;SHT31;58935;54.498;18.544;2023-04-24T10:37:18;16.05;75.08
71206;SHT31;58935;54.498;18.544;2023-04-24T10:39:47;16.21;74.55
71206;SHT31;58935;54.498;18.544;2023-04-24T10:42:16;16.34;73.97
71206;SHT31;58935;54.498;18.544;2023-04-24T10:44:43;16.43;73.41
71206;SHT31;58935;54.498;18.544;2023-04-24T10:47:12;16.53;73.09
71206;SHT31;58935;54.498;18.544;2023-04-24T10:49:39;16.60;72.62
71206;SHT31;58935;54.498;18.544;2023-04-24T10:52:05;16.70;72.47
71206;SHT31;58935;54.498;18.544;2023-04-24T10:59:47;17.12;71.64
71206;SHT31;58935;54.498;18.544;2023-04-24T11:02:15;17.29;70.99
71206;SHT31;58935;54.498;18.544;2023-04-24T11:04:42;17.45;70.43
71206;SHT31;58935;54.498;18.544;2023-04-24T11:07:11;17.66;69.77
71206;SHT31;58935;54.498;18.544;2023-04-24T11:09:39;17.86;68.52
71206;SHT31;58935;54.498;18.544;2023-04-24T11:12:08;18.00;68.08
71206;SHT31;58935;54.498;18.544;2023-04-24T11:17:26;18.17;66.95
71206;SHT31;58935;54.498;18.544;2023-04-24T11:20:01;18.24;66.60
71206;SHT31;58935;54.498;18.544;2023-04-24T11:22:32;18.33;66.40
71206;SHT31;58935;54.498;18.544;2023-04-24T11:25:01;18.50;66.34
71206;SHT31;58935;54.498;18.544;2023-04-24T11:27:34;18.73;66.05
71206;SHT31;58935;54.498;18.544;2023-04-24T11:30:06;18.95;64.66
71206;SHT31;58935;54.498;18.544;2023-04-24T11:32:37;19.11;64.32
71206;SHT31;58935;54.498;18.544;2023-04-24T11:35:06;19.31;64.11
71206;SHT31;58935;54.498;18.544;2023-04-24T11:37:45;19.52;62.74
71206;SHT31;58935;54.498;18.544;2023-04-24T11:40:15;19.69;62.84
71206;SHT31;58935;54.498;18.544;2023-04-24T11:42:47;19.86;61.30
71206;SHT31;58935;54.498;18.544;2023-04-24T11:45:15;20.00;61.08
71206;SHT31;58935;54.498;18.544;2023-04-24T11:47:44;20.02;60.23
71206;SHT31;58935;54.498;18.544;2023-04-24T11:50:11;20.05;60.23
71206;SHT31;58935;54.498;18.544;2023-04-24T11:55:26;20.17;59.92
71206;SHT31;58935;54.498;18.544;2023-04-24T11:57:54;20.21;59.15
71206;SHT31;58935;54.498;18.544;2023-04-24T12:00:24;20.13;58.63
71206;SHT31;58935;54.498;18.544;2023-04-24T12:05:29;20.15;58.87
71206;SHT31;58935;54.498;18.544;2023-04-24T12:07:56;20.21;58.75
71206;SHT31;58935;54.498;18.544;2023-04-24T12:10:23;20.30;58.58
71206;SHT31;58935;54.498;18.544;2023-04-24T12:12:51;20.35;58.36
71206;SHT31;58935;54.498;18.544;2023-04-24T12:15:18;20.45;58.53
71206;SHT31;58935;54.498;18.544;2023-04-24T12:17:46;20.59;58.59
71206;SHT31;58935;54.498;18.544;2023-04-24T12:20:13;20.76;57.99
71206;SHT31;58935;54.498;18.544;2023-04-24T12:25:15;20.93;56.77
71206;SHT31;58935;54.498;18.544;2023-04-24T12:27:43;20.85;56.48
71206;SHT31;58935;54.498;18.544;2023-04-24T12:30:13;20.73;56.12
71206;SHT31;58935;54.498;18.544;2023-04-24T12:32:46;20.61;55.70
71206;SHT31;58935;54.498;18.544;2023-04-24T12:35:14;20.47;54.99
71206;SHT31;58935;54.498;18.544;2023-04-24T12:37:47;20.39;54.56
71206;SHT31;58935;54.498;18.544;2023-04-24T12:40:14;20.33;54.72
71206;SHT31;58935;54.498;18.544;2023-04-24T12:42:43;20.30;54.22
71206;SHT31;58935;54.498;18.544;2023-04-24T12:45:14;20.26;53.95
71206;SHT31;58935;54.498;18.544;2023-04-24T12:47:42;20.24;53.66
71206;SHT31;58935;54.498;18.544;2023-04-24T12:50:13;20.22;53.26
71206;SHT31;58935;54.498;18.544;2023-04-24T12:52:41;20.21;53.05
71206;SHT31;58935;54.498;18.544;2023-04-24T12:55:08;20.28;51.95
71206;SHT31;58935;54.498;18.544;2023-04-24T12:57:38;20.36;50.62
71206;SHT31;58935;54.498;18.544;2023-04-24T13:00:05;20.55;49.94
71206;SHT31;58935;54.498;18.544;2023-04-24T13:02:33;20.87;49.91
71206;SHT31;58935;54.498;18.544;2023-04-24T13:05:00;21.25;49.87
71206;SHT31;58935;54.498;18.544;2023-04-24T13:07:26;21.64;48.85
71206;SHT31;58935;54.498;18.544;2023-04-24T13:09:53;21.93;47.98
71206;SHT31;58935;54.498;18.544;2023-04-24T13:12:21;22.07;46.31
71206;SHT31;58935;54.498;18.544;2023-04-24T13:14:48;22.17;45.48
71206;SHT31;58935;54.498;18.544;2023-04-24T13:17:16;22.19;44.97
71206;SHT31;58935;54.498;18.544;2023-04-24T13:19:43;22.15;45.50
71206;SHT31;58935;54.498;18.544;2023-04-24T13:22:10;22.18;44.90
71206;SHT31;58935;54.498;18.544;2023-04-24T13:24:37;22.14;44.47
71206;SHT31;58935;54.498;18.544;2023-04-24T13:27:06;22.04;43.52
71206;SHT31;58935;54.498;18.544;2023-04-24T13:29:34;21.92;43.22
71206;SHT31;58935;54.498;18.544;2023-04-24T13:32:00;21.84;43.87
71206;SHT31;58935;54.498;18.544;2023-04-24T13:34:26;21.83;44.28
71206;SHT31;58935;54.498;18.544;2023-04-24T13:36:53;21.82;43.56
71206;SHT31;58935;54.498;18.544;2023-04-24T13:39:23;21.80;43.28
71206;SHT31;58935;54.498;18.544;2023-04-24T13:41:50;21.79;43.39
71206;SHT31;58935;54.498;18.544;2023-04-24T13:44:17;21.77;43.15
71206;SHT31;58935;54.498;18.544;2023-04-24T13:46:45;21.82;43.31
71206;SHT31;58935;54.498;18.544;2023-04-24T13:49:13;22.02;43.18
71206;SHT31;58935;54.498;18.544;2023-04-24T13:51:40;22.26;42.51
71206;SHT31;58935;54.498;18.544;2023-04-24T13:54:07;22.40;41.63
71206;SHT31;58935;54.498;18.544;2023-04-24T13:56:33;22.42;41.54
71206;SHT31;58935;54.498;18.544;2023-04-24T13:58:59;22.41;41.66
71206;SHT31;58935;54.498;18.544;2023-04-24T14:01:25;22.43;41.55
71206;SHT31;58935;54.498;18.544;2023-04-24T14:03:52;22.50;40.79
71206;SHT31;58935;54.498;18.544;2023-04-24T14:06:19;22.66;40.56
71206;SHT31;58935;54.498;18.544;2023-04-24T14:08:47;22.86;40.49
71206;SHT31;58935;54.498;18.544;2023-04-24T14:11:15;23.03;40.54
71206;SHT31;58935;54.498;18.544;2023-04-24T14:13:41;23.24;40.56
71206;SHT31;58935;54.498;18.544;2023-04-24T14:16:08;23.40;40.24
71206;SHT31;58935;54.498;18.544;2023-04-24T14:18:35;23.58;40.12
71206;SHT31;58935;54.498;18.544;2023-04-24T14:21:04;23.73;39.98
71206;SHT31;58935;54.498;18.544;2023-04-24T14:23:30;23.81;39.54
71206;SHT31;58935;54.498;18.544;2023-04-24T14:25:57;23.89;39.79
71206;SHT31;58935;54.498;18.544;2023-04-24T14:28:23;24.00;40.03
71206;SHT31;58935;54.498;18.544;2023-04-24T14:30:49;24.09;39.57
71206;SHT31;58935;54.498;18.544;2023-04-24T14:33:15;24.17;39.72
71206;SHT31;58935;54.498;18.544;2023-04-24T14:35:42;24.26;39.66
71206;SHT31;58935;54.498;18.544;2023-04-24T14:38:08;24.31;39.22
71206;SHT31;58935;54.498;18.544;2023-04-24T14:40:34;24.30;38.98
71206;SHT31;58935;54.498;18.544;2023-04-24T14:43:01;24.29;39.19
71206;SHT31;58935;54.498;18.544;2023-04-24T14:45:26;24.26;39.00
71206;SHT31;58935;54.498;18.544;2023-04-24T14:47:52;24.19;38.37
71206;SHT31;58935;54.498;18.544;2023-04-24T14:50:18;24.11;38.50
71206;SHT31;58935;54.498;18.544;2023-04-24T14:52:45;24.01;38.74
71206;SHT31;58935;54.498;18.544;2023-04-24T14:55:11;23.93;38.98
71206;SHT31;58935;54.498;18.544;2023-04-24T14:57:37;23.86;39.12
71206;SHT31;58935;54.498;18.544;2023-04-24T15:00:04;23.82;39.41
71206;SHT31;58935;54.498;18.544;2023-04-24T15:02:34;23.73;39.19
71206;SHT31;58935;54.498;18.544;2023-04-24T15:05:01;23.69;39.47
71206;SHT31;58935;54.498;18.544;2023-04-24T15:07:28;23.53;39.68
71206;SHT31;58935;54.498;18.544;2023-04-24T15:09:54;23.34;40.43
71206;SHT31;58935;54.498;18.544;2023-04-24T15:12:21;23.15;40.68
71206;SHT31;58935;54.498;18.544;2023-04-24T15:14:47;22.87;41.27
71206;SHT31;58935;54.498;18.544;2023-04-24T15:17:13;22.61;42.40
71206;SHT31;58935;54.498;18.544;2023-04-24T15:19:38;22.44;43.12
71206;SHT31;58935;54.498;18.544;2023-04-24T15:22:06;22.29;43.52
71206;SHT31;58935;54.498;18.544;2023-04-24T15:24:31;22.12;44.04
71206;SHT31;58935;54.498;18.544;2023-04-24T15:26:56;21.96;44.52
71206;SHT31;58935;54.498;18.544;2023-04-24T15:29:24;21.80;45.02
71206;SHT31;58935;54.498;18.544;2023-04-24T15:31:50;21.60;45.68
71206;SHT31;58935;54.498;18.544;2023-04-24T15:34:15;21.41;45.27